createdAt,value
2019-04-16T00:00:11.794Z,1023.7399
2019-04-16T00:00:20.259Z,1023.7934
2019-04-16T00:00:32.151Z,1023.8082
2019-04-16T00:00:44.019Z,1023.7806
2019-04-16T00:00:55.857Z,1023.7611
2019-04-16T00:01:07.687Z,1023.7349
2019-04-16T00:01:19.498Z,1023.7775
2019-04-16T00:01:31.428Z,1023.7513
2019-04-16T00:01:45.271Z,1023.7743
2019-04-16T00:01:56.107Z,1023.7757
2019-04-16T00:02:07.949Z,1023.7628
2019-04-16T00:02:19.790Z,1023.7562
2019-04-16T00:02:31.683Z,1023.7433
2019-04-16T00:02:43.603Z,1023.7598
2019-04-16T00:02:55.418Z,1023.7416
2019-04-16T00:03:07.313Z,1023.7352
2019-04-16T00:03:20.211Z,1023.7532
2019-04-16T00:03:31.979Z,1023.7664
2019-04-16T00:03:43.851Z,1023.7109
2019-04-16T00:03:55.735Z,1023.7684
2019-04-16T00:04:07.582Z,1023.7568
2019-04-16T00:04:19.485Z,1023.7404
2019-04-16T00:04:31.345Z,1023.7177
2019-04-16T00:04:43.176Z,1023.7536
2019-04-16T00:04:56.685Z,1023.7568
2019-04-16T00:05:07.828Z,1023.7355
2019-04-16T00:05:19.719Z,1023.7572
2019-04-16T00:05:31.647Z,1023.7652
2019-04-16T00:05:43.492Z,1023.7327
2019-04-16T00:05:58.395Z,1023.6921
2019-04-16T00:06:08.215Z,1023.7391
2019-04-16T00:06:20.044Z,1023.7214
2019-04-16T00:06:31.931Z,1023.6889
2019-04-16T00:06:43.808Z,1023.7509
2019-04-16T00:06:55.697Z,1023.7182
2019-04-16T00:07:07.581Z,1023.7232
2019-04-16T00:07:19.420Z,1023.7218
2019-04-16T00:07:31.274Z,1023.7086
2019-04-16T00:07:43.106Z,1023.7559
2019-04-16T00:07:54.976Z,1023.7037
2019-04-16T00:08:14.108Z,1023.7038
2019-04-16T00:08:27.547Z,1023.6694
2019-04-16T00:08:32.551Z,1023.6906
2019-04-16T00:08:44.379Z,1023.7365
2019-04-16T00:08:57.054Z,1023.7232
2019-04-16T00:09:09.183Z,1023.7446
2019-04-16T00:09:21.057Z,1023.6892
2019-04-16T00:09:33.001Z,1023.7285
2019-04-16T00:09:44.954Z,1023.7023
2019-04-16T00:09:56.790Z,1023.7203
2019-04-16T00:10:08.631Z,1023.7218
2019-04-16T00:10:20.542Z,1023.7401
2019-04-16T00:10:32.378Z,1023.7042
2019-04-16T00:10:44.319Z,1023.6762
2019-04-16T00:10:56.248Z,1023.7026
2019-04-16T00:11:08.143Z,1023.6519
2019-04-16T00:11:20.044Z,1023.6944
2019-04-16T00:11:31.883Z,1023.6585
2019-04-16T00:11:43.711Z,1023.6359
2019-04-16T00:11:55.711Z,1023.6668
2019-04-16T00:12:07.434Z,1023.6553
2019-04-16T00:12:19.318Z,1023.6439
2019-04-16T00:12:31.156Z,1023.6278
2019-04-16T00:12:43.071Z,1023.6752
2019-04-16T00:12:54.907Z,1023.6425
2019-04-16T00:13:06.785Z,1023.6213
2019-04-16T00:13:18.700Z,1023.6312
2019-04-16T00:13:30.529Z,1023.6312
2019-04-16T00:13:42.444Z,1023.6621
2019-04-16T00:13:54.277Z,1023.6099
2019-04-16T00:14:06.190Z,1023.6395
2019-04-16T00:14:18.042Z,1023.6378
2019-04-16T00:14:29.874Z,1023.6135
2019-04-16T00:14:41.773Z,1023.599
2019-04-16T00:14:54.005Z,1023.6252
2019-04-16T00:15:05.585Z,1023.6121
2019-04-16T00:15:17.494Z,1023.6071
2019-04-16T00:15:29.311Z,1023.6514
2019-04-16T00:15:42.005Z,1023.6333
2019-04-16T00:15:53.084Z,1023.6448
2019-04-16T00:16:04.969Z,1023.6203
2019-04-16T00:16:16.912Z,1023.6056
2019-04-16T00:16:28.752Z,1023.6154
2019-04-16T00:16:41.312Z,1023.6009
2019-04-16T00:16:53.752Z,1023.6043
2019-04-16T00:17:05.442Z,1023.637
2019-04-16T00:17:17.249Z,1023.6209
2019-04-16T00:17:29.078Z,1023.6503
2019-04-16T00:17:40.967Z,1023.6436
2019-04-16T00:17:52.846Z,1023.652
2019-04-16T00:18:04.687Z,1023.6031
2019-04-16T00:18:18.683Z,1023.647
2019-04-16T00:18:29.417Z,1023.5932
2019-04-16T00:18:41.243Z,1023.6326
2019-04-16T00:18:57.491Z,1023.6195
2019-04-16T00:19:06.590Z,1023.6246
2019-04-16T00:19:17.890Z,1023.6099
2019-04-16T00:19:29.734Z,1023.5725
2019-04-16T00:19:41.638Z,1023.6
2019-04-16T00:19:53.510Z,1023.5839
2019-04-16T00:20:06.563Z,1023.6297
2019-04-16T00:20:18.192Z,1023.6037
2019-04-16T00:20:30.058Z,1023.6005
2019-04-16T00:20:41.919Z,1023.5907
2019-04-16T00:20:54.022Z,1023.6201
2019-04-16T00:21:06.387Z,1023.5811
2019-04-16T00:21:18.614Z,1023.6004
2019-04-16T00:21:30.475Z,1023.594
2019-04-16T00:21:42.371Z,1023.5878
2019-04-16T00:21:55.304Z,1023.5242
2019-04-16T00:22:11.437Z,1023.5632
2019-04-16T00:22:19.953Z,1023.5402
2019-04-16T00:22:31.792Z,1023.5373
2019-04-16T00:22:43.636Z,1023.5521
2019-04-16T00:22:55.542Z,1023.609
2019-04-16T00:23:07.442Z,1023.6124
2019-04-16T00:23:19.274Z,1023.56
2019-04-16T00:23:31.206Z,1023.5878
2019-04-16T00:23:43.123Z,1023.6174
2019-04-16T00:23:54.946Z,1023.567
2019-04-16T00:24:06.867Z,1023.5815
2019-04-16T00:24:19.426Z,1023.5487
2019-04-16T00:24:30.712Z,1023.5556
2019-04-16T00:24:42.592Z,1023.5343
2019-04-16T00:24:54.437Z,1023.5375
2019-04-16T00:25:06.319Z,1023.5523
2019-04-16T00:25:18.181Z,1023.5133
2019-04-16T00:25:29.999Z,1023.536
2019-04-16T00:25:41.827Z,1023.5375
2019-04-16T00:25:55.302Z,1023.495
2019-04-16T00:26:06.577Z,1023.5246
2019-04-16T00:26:18.485Z,1023.5162
2019-04-16T00:26:30.291Z,1023.4609
2019-04-16T00:26:42.198Z,1023.492
2019-04-16T00:26:57.618Z,1023.5261
2019-04-16T00:27:06.853Z,1023.5181
2019-04-16T00:27:18.789Z,1023.4788
2019-04-16T00:27:30.663Z,1023.5294
2019-04-16T00:27:42.530Z,1023.4999
2019-04-16T00:27:54.561Z,1023.4885
2019-04-16T00:28:06.246Z,1023.5015
2019-04-16T00:28:18.131Z,1023.4852
2019-04-16T00:28:30.665Z,1023.5523
2019-04-16T00:28:42.768Z,1023.5276
2019-04-16T00:28:54.691Z,1023.5049
2019-04-16T00:29:06.549Z,1023.5488
2019-04-16T00:29:18.438Z,1023.5619
2019-04-16T00:29:32.915Z,1023.5407
2019-04-16T00:29:43.268Z,1023.5668
2019-04-16T00:29:55.099Z,1023.5634
2019-04-16T00:30:06.976Z,1023.5423
2019-04-16T00:30:18.918Z,1023.5554
2019-04-16T00:30:35.413Z,1023.526
2019-04-16T00:30:43.573Z,1023.5571
2019-04-16T00:30:55.407Z,1023.5147
2019-04-16T00:31:07.280Z,1023.526
2019-04-16T00:31:19.130Z,1023.5343
2019-04-16T00:31:30.975Z,1023.5259
2019-04-16T00:31:43.792Z,1023.549
2019-04-16T00:31:55.634Z,1023.4984
2019-04-16T00:32:09.037Z,1023.4934
2019-04-16T00:32:20.294Z,1023.4904
2019-04-16T00:32:32.138Z,1023.513
2019-04-16T00:32:43.963Z,1023.5181
2019-04-16T00:32:55.857Z,1023.5083
2019-04-16T00:33:10.530Z,1023.5229
2019-04-16T00:33:20.562Z,1023.5181
2019-04-16T00:33:32.485Z,1023.5067
2019-04-16T00:33:44.358Z,1023.5033
2019-04-16T00:33:56.236Z,1023.4756
2019-04-16T00:34:08.286Z,1023.484
2019-04-16T00:34:19.940Z,1023.5233
2019-04-16T00:34:32.876Z,1023.4774
2019-04-16T00:34:45.377Z,1023.489
2019-04-16T00:34:56.867Z,1023.4694
2019-04-16T00:35:08.625Z,1023.5137
2019-04-16T00:35:20.448Z,1023.4304
2019-04-16T00:35:32.393Z,1023.4906
2019-04-16T00:35:46.568Z,1023.5036
2019-04-16T00:35:57.251Z,1023.4174
2019-04-16T00:36:09.082Z,1023.4533
2019-04-16T00:36:20.907Z,1023.4925
2019-04-16T00:36:32.793Z,1023.5023
2019-04-16T00:36:48.381Z,1023.5075
2019-04-16T00:36:57.562Z,1023.4684
2019-04-16T00:37:09.453Z,1023.5109
2019-04-16T00:37:21.589Z,1023.4537
2019-04-16T00:37:33.240Z,1023.434
2019-04-16T00:37:45.076Z,1023.5043
2019-04-16T00:37:56.897Z,1023.4765
2019-04-16T00:38:08.844Z,1023.4637
2019-04-16T00:38:22.625Z,1023.4685
2019-04-16T00:38:40.302Z,1023.4981
2019-04-16T00:38:46.295Z,1023.5387
2019-04-16T00:38:58.134Z,1023.4932
2019-04-16T00:39:09.976Z,1023.4801
2019-04-16T00:39:24.240Z,1023.4818
2019-04-16T00:39:34.745Z,1023.4915
2019-04-16T00:39:46.582Z,1023.4901
2019-04-16T00:39:58.468Z,1023.5437
2019-04-16T00:40:10.347Z,1023.4802
2019-04-16T00:40:26.337Z,1023.5192
2019-04-16T00:40:35.050Z,1023.5081
2019-04-16T00:40:46.963Z,1023.4997
2019-04-16T00:41:01.069Z,1023.4688
2019-04-16T00:41:11.590Z,1023.4703
2019-04-16T00:41:24.413Z,1023.4525
2019-04-16T00:41:36.246Z,1023.4558
2019-04-16T00:41:48.133Z,1023.5161
2019-04-16T00:42:00.137Z,1023.4575
2019-04-16T00:42:12.023Z,1023.4931
2019-04-16T00:42:23.852Z,1023.4738
2019-04-16T00:42:35.767Z,1023.4641
2019-04-16T00:42:47.593Z,1023.4589
2019-04-16T00:42:59.483Z,1023.4447
2019-04-16T00:43:11.302Z,1023.5162
2019-04-16T00:43:23.166Z,1023.4804
2019-04-16T00:43:35.149Z,1023.5162
2019-04-16T00:43:46.981Z,1023.4624
2019-04-16T00:43:58.910Z,1023.5047
2019-04-16T00:44:10.879Z,1023.4837
2019-04-16T00:44:22.742Z,1023.51
2019-04-16T00:44:34.632Z,1023.5133
2019-04-16T00:44:46.526Z,1023.4758
2019-04-16T00:44:58.362Z,1023.4854
2019-04-16T00:45:10.281Z,1023.4804
2019-04-16T00:45:22.106Z,1023.4806
2019-04-16T00:45:34.024Z,1023.4935
2019-04-16T00:45:45.886Z,1023.5053
2019-04-16T00:45:57.716Z,1023.4367
2019-04-16T00:46:11.431Z,1023.4905
2019-04-16T00:46:22.540Z,1023.4838
2019-04-16T00:46:34.391Z,1023.427
2019-04-16T00:46:46.308Z,1023.44
2019-04-16T00:46:58.206Z,1023.4318
2019-04-16T00:47:10.095Z,1023.4871
2019-04-16T00:47:21.918Z,1023.4075
2019-04-16T00:47:33.761Z,1023.4545
2019-04-16T00:47:47.897Z,1023.4464
2019-04-16T00:47:58.533Z,1023.4645
2019-04-16T00:48:10.414Z,1023.4335
2019-04-16T00:48:22.238Z,1023.4515
2019-04-16T00:48:34.102Z,1023.4251
2019-04-16T00:48:45.941Z,1023.4304
2019-04-16T00:48:57.871Z,1023.4301
2019-04-16T00:49:09.763Z,1023.4516
2019-04-16T00:49:26.237Z,1023.4453
2019-04-16T00:49:37.588Z,1023.4254
2019-04-16T00:49:47.271Z,1023.4337
2019-04-16T00:49:59.570Z,1023.4385
2019-04-16T00:50:10.939Z,1023.4109
2019-04-16T00:50:22.832Z,1023.406
2019-04-16T00:50:34.666Z,1023.3897
2019-04-16T00:50:46.589Z,1023.4142
2019-04-16T00:50:58.444Z,1023.4093
2019-04-16T00:51:10.277Z,1023.4567
2019-04-16T00:51:22.176Z,1023.4062
2019-04-16T00:51:34.014Z,1023.4568
2019-04-16T00:51:45.937Z,1023.4194
2019-04-16T00:51:57.844Z,1023.3737
2019-04-16T00:52:09.737Z,1023.4112
2019-04-16T00:52:21.657Z,1023.4079
2019-04-16T00:52:36.633Z,1023.4046
2019-04-16T00:52:46.396Z,1023.3768
2019-04-16T00:52:58.290Z,1023.4322
2019-04-16T00:53:10.185Z,1023.421
2019-04-16T00:53:22.071Z,1023.4032
2019-04-16T00:53:36.304Z,1023.4832
2019-04-16T00:53:46.886Z,1023.3789
2019-04-16T00:53:58.902Z,1023.392
2019-04-16T00:54:11.351Z,1023.4346
2019-04-16T00:54:22.516Z,1023.3839
2019-04-16T00:54:34.357Z,1023.4818
2019-04-16T00:54:46.250Z,1023.4461
2019-04-16T00:54:58.114Z,1023.4152
2019-04-16T00:55:13.550Z,1023.4411
2019-04-16T00:55:22.825Z,1023.4724
2019-04-16T00:55:34.733Z,1023.4724
2019-04-16T00:55:46.600Z,1023.4363
2019-04-16T00:55:58.528Z,1023.4167
2019-04-16T00:56:10.441Z,1023.4215
2019-04-16T00:56:22.250Z,1023.4363
2019-04-16T00:56:34.152Z,1023.4592
2019-04-16T00:56:46.569Z,1023.4444
2019-04-16T00:56:58.796Z,1023.394
2019-04-16T00:57:10.763Z,1023.4101
2019-04-16T00:57:22.635Z,1023.425
2019-04-16T00:57:34.464Z,1023.4559
2019-04-16T00:57:48.581Z,1023.4346
2019-04-16T00:57:59.291Z,1023.4349
2019-04-16T00:58:11.172Z,1023.4838
2019-04-16T00:58:22.993Z,1023.4642
2019-04-16T00:58:34.831Z,1023.4234
2019-04-16T00:58:49.305Z,1023.4607
2019-04-16T00:58:59.534Z,1023.4283
2019-04-16T00:59:11.483Z,1023.4724
2019-04-16T00:59:24.092Z,1023.4492
2019-04-16T00:59:36.112Z,1023.4542
2019-04-16T00:59:47.960Z,1023.4396
2019-04-16T00:59:59.767Z,1023.5148
2019-04-16T01:00:11.651Z,1023.4494
2019-04-16T01:00:23.497Z,1023.4313
2019-04-16T01:00:35.413Z,1023.3842
2019-04-16T01:00:47.393Z,1023.4006
2019-04-16T01:00:59.256Z,1023.4348
2019-04-16T01:01:11.172Z,1023.4512
2019-04-16T01:01:23.053Z,1023.4006
2019-04-16T01:01:34.890Z,1023.4249
2019-04-16T01:01:46.829Z,1023.4593
2019-04-16T01:01:58.662Z,1023.4951
2019-04-16T01:02:10.561Z,1023.4266
2019-04-16T01:02:22.545Z,1023.4444
2019-04-16T01:02:34.428Z,1023.384
2019-04-16T01:02:46.991Z,1023.4691
2019-04-16T01:02:58.402Z,1023.4364
2019-04-16T01:03:09.999Z,1023.4381
2019-04-16T01:03:21.927Z,1023.4315
2019-04-16T01:03:33.759Z,1023.4431
2019-04-16T01:03:45.689Z,1023.4199
2019-04-16T01:03:57.580Z,1023.4559
2019-04-16T01:04:09.418Z,1023.4024
2019-04-16T01:04:21.333Z,1023.4299
2019-04-16T01:04:33.162Z,1023.4511
2019-04-16T01:04:45.068Z,1023.4512
2019-04-16T01:04:56.943Z,1023.4268
2019-04-16T01:05:08.777Z,1023.4613
2019-04-16T01:05:20.717Z,1023.4888
2019-04-16T01:05:34.994Z,1023.4333
2019-04-16T01:05:45.360Z,1023.4365
2019-04-16T01:05:57.272Z,1023.4956
2019-04-16T01:06:09.113Z,1023.4417
2019-04-16T01:06:20.956Z,1023.4612
2019-04-16T01:06:32.852Z,1023.4321
2019-04-16T01:06:44.745Z,1023.4486
2019-04-16T01:06:56.626Z,1023.4938
2019-04-16T01:07:08.463Z,1023.4565
2019-04-16T01:07:20.347Z,1023.4762
2019-04-16T01:07:32.272Z,1023.4533
2019-04-16T01:07:44.168Z,1023.4418
2019-04-16T01:07:56.466Z,1023.3836
2019-04-16T01:08:07.957Z,1023.4682
2019-04-16T01:08:19.793Z,1023.4633
2019-04-16T01:08:31.700Z,1023.4259
2019-04-16T01:08:53.790Z,1023.4307
2019-04-16T01:08:56.402Z,1023.4422
2019-04-16T01:09:08.291Z,1023.4113
2019-04-16T01:09:20.159Z,1023.4537
2019-04-16T01:09:32.012Z,1023.4456
2019-04-16T01:09:43.838Z,1023.3853
2019-04-16T01:09:55.670Z,1023.4458
2019-04-16T01:10:07.612Z,1023.4375
2019-04-16T01:10:19.466Z,1023.4378
2019-04-16T01:10:31.322Z,1023.3904
2019-04-16T01:10:43.206Z,1023.3986
2019-04-16T01:10:55.051Z,1023.4018
2019-04-16T01:11:06.989Z,1023.3692
2019-04-16T01:11:18.903Z,1023.4069
2019-04-16T01:11:30.746Z,1023.4348
2019-04-16T01:11:42.651Z,1023.4199
2019-04-16T01:11:54.467Z,1023.4117
2019-04-16T01:12:06.386Z,1023.3923
2019-04-16T01:12:18.223Z,1023.4396
2019-04-16T01:12:30.057Z,1023.428
2019-04-16T01:12:41.955Z,1023.4101
2019-04-16T01:12:53.849Z,1023.3661
2019-04-16T01:13:05.737Z,1023.3987
2019-04-16T01:13:17.589Z,1023.3909
2019-04-16T01:13:29.402Z,1023.3922
2019-04-16T01:13:41.274Z,1023.4067
2019-04-16T01:13:53.272Z,1023.3858
2019-04-16T01:14:05.946Z,1023.3922
2019-04-16T01:14:17.874Z,1023.3923
2019-04-16T01:14:29.697Z,1023.3662
2019-04-16T01:14:41.545Z,1023.3778
2019-04-16T01:14:53.383Z,1023.3596
2019-04-16T01:15:05.238Z,1023.3906
2019-04-16T01:15:17.123Z,1023.366
2019-04-16T01:15:29.157Z,1023.3953
2019-04-16T01:15:41.823Z,1023.3825
2019-04-16T01:15:53.730Z,1023.3823
2019-04-16T01:16:05.547Z,1023.3759
2019-04-16T01:16:17.471Z,1023.3582
2019-04-16T01:16:32.871Z,1023.3711
2019-04-16T01:16:43.235Z,1023.3287
2019-04-16T01:16:55.066Z,1023.3208
2019-04-16T01:17:06.926Z,1023.3696
2019-04-16T01:17:18.902Z,1023.3743
2019-04-16T01:17:33.335Z,1023.3518
2019-04-16T01:17:43.583Z,1023.3793
2019-04-16T01:17:55.501Z,1023.376
2019-04-16T01:18:08.853Z,1023.3942
2019-04-16T01:18:20.271Z,1023.4495
2019-04-16T01:18:32.104Z,1023.417
2019-04-16T01:18:43.989Z,1023.3746
2019-04-16T01:18:55.838Z,1023.4089
2019-04-16T01:19:09.960Z,1023.3648
2019-04-16T01:19:20.623Z,1023.3878
2019-04-16T01:19:32.580Z,1023.3666
2019-04-16T01:19:44.377Z,1023.4009
2019-04-16T01:19:56.253Z,1023.3178
2019-04-16T01:20:11.526Z,1023.334
2019-04-16T01:20:21.000Z,1023.3817
2019-04-16T01:20:32.892Z,1023.4157
2019-04-16T01:20:44.700Z,1023.4321
2019-04-16T01:20:56.554Z,1023.3748
2019-04-16T01:21:08.804Z,1023.3812
2019-04-16T01:21:20.339Z,1023.3535
2019-04-16T01:21:32.226Z,1023.3861
2019-04-16T01:21:44.746Z,1023.4124
2019-04-16T01:21:56.954Z,1023.3715
2019-04-16T01:22:08.794Z,1023.367
2019-04-16T01:22:20.836Z,1023.342
2019-04-16T01:22:32.765Z,1023.3599
2019-04-16T01:22:46.795Z,1023.3487
2019-04-16T01:22:57.496Z,1023.3128
2019-04-16T01:23:09.458Z,1023.3503
2019-04-16T01:23:21.378Z,1023.3439
2019-04-16T01:23:33.212Z,1023.3944
2019-04-16T01:23:48.276Z,1023.3734
2019-04-16T01:23:57.908Z,1023.3568
2019-04-16T01:24:09.799Z,1023.3178
2019-04-16T01:24:21.682Z,1023.3376
2019-04-16T01:24:33.539Z,1023.3439
2019-04-16T01:24:45.400Z,1023.3146
2019-04-16T01:24:57.332Z,1023.3506
2019-04-16T01:25:09.050Z,1023.3492
2019-04-16T01:25:23.196Z,1023.3718
2019-04-16T01:25:33.826Z,1023.3459
2019-04-16T01:25:45.667Z,1023.3459
2019-04-16T01:25:57.563Z,1023.3279
2019-04-16T01:26:09.396Z,1023.3118
2019-04-16T01:26:21.274Z,1023.3264
2019-04-16T01:26:33.152Z,1023.2857
2019-04-16T01:26:44.988Z,1023.2938
2019-04-16T01:26:58.026Z,1023.3085
2019-04-16T01:27:09.905Z,1023.3168
2019-04-16T01:27:21.663Z,1023.2988
2019-04-16T01:27:33.524Z,1023.3283
2019-04-16T01:27:45.354Z,1023.281
2019-04-16T01:27:59.608Z,1023.3007
2019-04-16T01:28:10.089Z,1023.312
2019-04-16T01:28:21.966Z,1023.294
2019-04-16T01:28:33.799Z,1023.3446
2019-04-16T01:28:45.620Z,1023.3007
2019-04-16T01:28:57.550Z,1023.343
2019-04-16T01:29:09.390Z,1023.3124
2019-04-16T01:29:21.260Z,1023.3366
2019-04-16T01:29:33.821Z,1023.3187
2019-04-16T01:29:45.941Z,1023.2879
2019-04-16T01:29:57.818Z,1023.3449
2019-04-16T01:30:09.652Z,1023.335
2019-04-16T01:30:21.560Z,1023.3401
2019-04-16T01:30:36.257Z,1023.2943
2019-04-16T01:30:46.227Z,1023.322
2019-04-16T01:30:58.141Z,1023.2846
2019-04-16T01:31:10.033Z,1023.3417
2019-04-16T01:31:21.802Z,1023.3074
2019-04-16T01:31:36.247Z,1023.2994
2019-04-16T01:31:46.525Z,1023.3074
2019-04-16T01:31:58.356Z,1023.3092
2019-04-16T01:32:11.621Z,1023.366
2019-04-16T01:32:23.179Z,1023.314
2019-04-16T01:32:35.137Z,1023.3663
2019-04-16T01:32:46.956Z,1023.3041
2019-04-16T01:32:58.875Z,1023.3498
2019-04-16T01:33:14.204Z,1023.3222
2019-04-16T01:33:23.597Z,1023.296
2019-04-16T01:33:35.580Z,1023.3334
2019-04-16T01:33:47.494Z,1023.2927
2019-04-16T01:33:59.349Z,1023.3318
2019-04-16T01:34:11.324Z,1023.3108
2019-04-16T01:34:23.027Z,1023.3173
2019-04-16T01:34:35.861Z,1023.332
2019-04-16T01:34:48.435Z,1023.3499
2019-04-16T01:34:59.749Z,1023.327
2019-04-16T01:35:11.582Z,1023.3272
2019-04-16T01:35:23.492Z,1023.2961
2019-04-16T01:35:35.336Z,1023.3419
2019-04-16T01:35:51.011Z,1023.2848
2019-04-16T01:36:00.032Z,1023.2963
2019-04-16T01:36:11.919Z,1023.3158
2019-04-16T01:36:23.833Z,1023.2965
2019-04-16T01:36:35.754Z,1023.2917
2019-04-16T01:36:47.614Z,1023.2901
2019-04-16T01:36:59.425Z,1023.3098
2019-04-16T01:37:11.284Z,1023.3276
2019-04-16T01:37:25.673Z,1023.3082
2019-04-16T01:37:35.967Z,1023.3261
2019-04-16T01:37:47.874Z,1023.3295
2019-04-16T01:37:59.844Z,1023.3262
2019-04-16T01:38:11.526Z,1023.305
2019-04-16T01:38:27.599Z,1023.2955
2019-04-16T01:38:36.205Z,1023.3167
2019-04-16T01:38:48.092Z,1023.3201
2019-04-16T01:39:14.045Z,1023.341
2019-04-16T01:39:17.762Z,1023.335
2019-04-16T01:39:25.520Z,1023.2876
2019-04-16T01:39:37.428Z,1023.2812
2019-04-16T01:39:49.348Z,1023.286
2019-04-16T01:40:01.182Z,1023.2926
2019-04-16T01:40:13.124Z,1023.2717
2019-04-16T01:40:24.943Z,1023.3174
2019-04-16T01:40:36.780Z,1023.2929
2019-04-16T01:40:50.091Z,1023.3141
2019-04-16T01:41:01.487Z,1023.3077
2019-04-16T01:41:13.318Z,1023.3143
2019-04-16T01:41:25.146Z,1023.3289
2019-04-16T01:41:36.984Z,1023.3339
2019-04-16T01:41:50.267Z,1023.3161
2019-04-16T01:42:01.860Z,1023.2998
2019-04-16T01:42:13.616Z,1023.2998
2019-04-16T01:42:25.531Z,1023.2673
2019-04-16T01:42:37.356Z,1023.3064
2019-04-16T01:42:49.258Z,1023.3064
2019-04-16T01:43:01.124Z,1023.2935
2019-04-16T01:43:13.039Z,1023.3359
2019-04-16T01:43:25.731Z,1023.3018
2019-04-16T01:43:37.862Z,1023.3281
2019-04-16T01:43:49.780Z,1023.3248
2019-04-16T01:44:01.593Z,1023.3037
2019-04-16T01:44:13.508Z,1023.3181
2019-04-16T01:44:28.403Z,1023.3101
2019-04-16T01:44:38.190Z,1023.3167
2019-04-16T01:44:50.074Z,1023.3136
2019-04-16T01:45:02.195Z,1023.3005
2019-04-16T01:45:13.759Z,1023.3103
2019-04-16T01:45:29.548Z,1023.2861
2019-04-16T01:45:38.425Z,1023.3334
2019-04-16T01:45:50.258Z,1023.2959
2019-04-16T01:46:02.580Z,1023.3008
2019-04-16T01:46:13.920Z,1023.3107
2019-04-16T01:46:25.820Z,1023.3076
2019-04-16T01:46:37.637Z,1023.3026
2019-04-16T01:46:49.573Z,1023.3041
2019-04-16T01:47:04.110Z,1023.3206
2019-04-16T01:47:14.237Z,1023.3108
2019-04-16T01:47:26.107Z,1023.2945
2019-04-16T01:47:37.982Z,1023.2849
2019-04-16T01:47:49.814Z,1023.3142
2019-04-16T01:48:06.631Z,1023.2523
2019-04-16T01:48:14.636Z,1023.2831
2019-04-16T01:48:26.543Z,1023.2948
2019-04-16T01:48:39.564Z,1023.267
2019-04-16T01:48:51.233Z,1023.314
2019-04-16T01:49:03.159Z,1023.2899
2019-04-16T01:49:14.973Z,1023.3029
2019-04-16T01:49:26.886Z,1023.2622
2019-04-16T01:49:39.273Z,1023.2849
2019-04-16T01:49:51.557Z,1023.2785
2019-04-16T01:50:03.446Z,1023.2638
2019-04-16T01:50:15.351Z,1023.28
2019-04-16T01:50:27.209Z,1023.2849
2019-04-16T01:50:43.474Z,1023.2084
2019-04-16T01:50:51.996Z,1023.2639
2019-04-16T01:51:03.828Z,1023.2639
2019-04-16T01:51:16.230Z,1023.2637
2019-04-16T01:51:27.492Z,1023.2329
2019-04-16T01:51:39.415Z,1023.246
2019-04-16T01:51:51.272Z,1023.2849
2019-04-16T01:52:03.111Z,1023.2881
2019-04-16T01:52:18.644Z,1023.2768
2019-04-16T01:52:27.832Z,1023.252
2019-04-16T01:52:39.674Z,1023.2327
2019-04-16T01:52:51.520Z,1023.2507
2019-04-16T01:53:03.375Z,1023.2684
2019-04-16T01:53:18.280Z,1023.2523
2019-04-16T01:53:29.116Z,1023.2782
2019-04-16T01:53:41.011Z,1023.2849
2019-04-16T01:53:53.019Z,1023.2736
2019-04-16T01:54:04.714Z,1023.2279
2019-04-16T01:54:16.618Z,1023.2587
2019-04-16T01:54:28.457Z,1023.2863
2019-04-16T01:54:40.358Z,1023.2471
2019-04-16T01:54:54.755Z,1023.231
2019-04-16T01:55:05.142Z,1023.2456
2019-04-16T01:55:16.976Z,1023.2279
2019-04-16T01:55:28.875Z,1023.2945
2019-04-16T01:55:42.389Z,1023.2507
2019-04-16T01:55:56.663Z,1023.2474
2019-04-16T01:56:06.500Z,1023.2555
2019-04-16T01:56:18.330Z,1023.2785
2019-04-16T01:56:30.161Z,1023.2346
2019-04-16T01:56:42.003Z,1023.2395
2019-04-16T01:56:53.914Z,1023.2395
2019-04-16T01:57:05.728Z,1023.2523
2019-04-16T01:57:17.595Z,1023.2768
2019-04-16T01:57:30.696Z,1023.2457
2019-04-16T01:57:42.522Z,1023.2767
2019-04-16T01:57:54.371Z,1023.2409
2019-04-16T01:58:06.234Z,1023.2718
2019-04-16T01:58:18.126Z,1023.2443
2019-04-16T01:58:33.488Z,1023.2184
2019-04-16T01:58:42.831Z,1023.2492
2019-04-16T01:58:54.707Z,1023.2492
2019-04-16T01:59:06.604Z,1023.1956
2019-04-16T01:59:18.438Z,1023.2834
2019-04-16T01:59:30.272Z,1023.2639
2019-04-16T01:59:42.160Z,1023.2885
2019-04-16T01:59:54.054Z,1023.2542
2019-04-16T02:00:07.780Z,1023.2593
2019-04-16T02:00:18.730Z,1023.2531
2019-04-16T02:00:30.603Z,1023.1878
2019-04-16T02:00:42.516Z,1023.2449
2019-04-16T02:00:54.385Z,1023.2318
2019-04-16T02:01:08.003Z,1023.2613
2019-04-16T02:01:19.102Z,1023.2011
2019-04-16T02:01:30.978Z,1023.2728
2019-04-16T02:01:43.349Z,1023.2368
2019-04-16T02:01:54.757Z,1023.2009
2019-04-16T02:02:06.622Z,1023.2597
2019-04-16T02:02:18.485Z,1023.2628
2019-04-16T02:02:30.354Z,1023.2662
2019-04-16T02:02:43.427Z,1023.2599
2019-04-16T02:02:55.152Z,1023.2713
2019-04-16T02:03:07.068Z,1023.2352
2019-04-16T02:03:18.884Z,1023.3004
2019-04-16T02:03:30.726Z,1023.2515
2019-04-16T02:03:42.564Z,1023.2238
2019-04-16T02:03:54.430Z,1023.2404
2019-04-16T02:04:06.260Z,1023.2778
2019-04-16T02:04:19.789Z,1023.2109
2019-04-16T02:04:31.081Z,1023.247
2019-04-16T02:04:43.089Z,1023.2518
2019-04-16T02:04:54.894Z,1023.229
2019-04-16T02:05:06.794Z,1023.2583
2019-04-16T02:05:20.326Z,1023.2828
2019-04-16T02:05:31.609Z,1023.2129
2019-04-16T02:05:43.484Z,1023.265
2019-04-16T02:05:55.587Z,1023.2895
2019-04-16T02:06:07.425Z,1023.2472
2019-04-16T02:06:19.112Z,1023.2472
2019-04-16T02:06:30.930Z,1023.2214
2019-04-16T02:06:42.835Z,1023.2164
2019-04-16T02:06:57.100Z,1023.223
2019-04-16T02:07:07.632Z,1023.2101
2019-04-16T02:07:19.463Z,1023.215
2019-04-16T02:07:31.351Z,1023.228
2019-04-16T02:07:43.263Z,1023.2117
2019-04-16T02:07:56.310Z,1023.3129
2019-04-16T02:08:07.954Z,1023.2673
2019-04-16T02:08:19.876Z,1023.2949
2019-04-16T02:08:31.808Z,1023.2917
2019-04-16T02:08:43.615Z,1023.2528
2019-04-16T02:08:55.454Z,1023.2673
2019-04-16T02:09:07.313Z,1023.2838
2019-04-16T02:09:22.587Z,1023.2691
2019-04-16T02:09:34.574Z,1023.2707
2019-04-16T02:09:44.876Z,1023.2496
2019-04-16T02:09:56.762Z,1023.2773
2019-04-16T02:10:08.862Z,1023.2449
2019-04-16T02:10:20.551Z,1023.2659
2019-04-16T02:10:32.422Z,1023.2888
2019-04-16T02:10:44.232Z,1023.2725
2019-04-16T02:10:56.086Z,1023.3132
2019-04-16T02:11:10.565Z,1023.2611
2019-04-16T02:11:20.953Z,1023.2956
2019-04-16T02:11:32.789Z,1023.2888
2019-04-16T02:11:44.602Z,1023.3037
2019-04-16T02:11:56.533Z,1023.3281
2019-04-16T02:12:12.728Z,1023.302
2019-04-16T02:12:21.217Z,1023.2923
2019-04-16T02:12:33.135Z,1023.32
2019-04-16T02:12:44.960Z,1023.2974
2019-04-16T02:12:56.871Z,1023.3121
2019-04-16T02:13:08.823Z,1023.3054
2019-04-16T02:13:20.569Z,1023.294
2019-04-16T02:13:32.582Z,1023.3509
2019-04-16T02:13:46.070Z,1023.2874
2019-04-16T02:13:57.235Z,1023.3134
2019-04-16T02:14:09.162Z,1023.3233
2019-04-16T02:14:22.321Z,1023.3182
2019-04-16T02:14:33.933Z,1023.3378
2019-04-16T02:14:47.279Z,1023.3231
2019-04-16T02:14:58.609Z,1023.3071
2019-04-16T02:15:10.509Z,1023.2888
2019-04-16T02:15:22.505Z,1023.3198
2019-04-16T02:15:34.238Z,1023.3167
2019-04-16T02:15:46.078Z,1023.3264
2019-04-16T02:15:57.912Z,1023.2692
2019-04-16T02:16:09.740Z,1023.2644
2019-04-16T02:16:22.299Z,1023.3134
2019-04-16T02:16:34.505Z,1023.2923
2019-04-16T02:16:46.401Z,1023.2824
2019-04-16T02:16:58.222Z,1023.2807
2019-04-16T02:17:10.239Z,1023.279
2019-04-16T02:17:26.647Z,1023.2725
2019-04-16T02:17:34.780Z,1023.3052